sensor_id;sensor_type;location;lat;lon;timestamp;temperature;humidity
15596;DHT22;7898;48.658;9.068;2023-06-19T00:02:11;21.70;99.90
15596;DHT22;7898;48.658;9.068;2023-06-19T00:04:38;21.60;99.90
15596;DHT22;7898;48.658;9.068;2023-06-19T00:07:05;21.60;99.90
15596;DHT22;7898;48.658;9.068;2023-06-19T00:09:32;21.60;99.90
15596;DHT22;7898;48.658;9.068;2023-06-19T00:11:59;21.50;99.90
15596;DHT22;7898;48.658;9.068;2023-06-19T00:14:27;21.40;99.90
15596;DHT22;7898;48.658;9.068;2023-06-19T00:16:54;21.30;99.90
15596;DHT22;7898;48.658;9.068;2023-06-19T00:19:23;21.20;99.90
15596;DHT22;7898;48.658;9.068;2023-06-19T00:21:50;21.10;99.90
15596;DHT22;7898;48.658;9.068;2023-06-19T00:24:16;21.00;99.90
15596;DHT22;7898;48.658;9.068;2023-06-19T00:26:43;20.80;99.90
15596;DHT22;7898;48.658;9.068;2023-06-19T00:29:10;20.70;99.90
15596;DHT22;7898;48.658;9.068;2023-06-19T00:31:37;20.60;99.90
15596;DHT22;7898;48.658;9.068;2023-06-19T00:34:04;20.60;99.90
15596;DHT22;7898;48.658;9.068;2023-06-19T00:36:32;20.50;99.90
15596;DHT22;7898;48.658;9.068;2023-06-19T00:39:05;20.50;99.90
15596;DHT22;7898;48.658;9.068;2023-06-19T00:41:34;20.40;99.90
15596;DHT22;7898;48.658;9.068;2023-06-19T00:44:01;20.40;99.90
15596;DHT22;7898;48.658;9.068;2023-06-19T00:46:28;20.30;99.90
15596;DHT22;7898;48.658;9.068;2023-06-19T00:48:55;20.20;99.90
15596;DHT22;7898;48.658;9.068;2023-06-19T00:51:22;20.10;99.90
15596;DHT22;7898;48.658;9.068;2023-06-19T00:53:51;20.00;99.90
15596;DHT22;7898;48.658;9.068;2023-06-19T00:56:17;19.90;99.90
15596;DHT22;7898;48.658;9.068;2023-06-19T00:58:44;19.90;99.90
15596;DHT22;7898;48.658;9.068;2023-06-19T01:01:11;19.90;99.90
15596;DHT22;7898;48.658;9.068;2023-06-19T01:03:38;19.80;99.90
15596;DHT22;7898;48.658;9.068;2023-06-19T01:06:08;19.90;99.90
15596;DHT22;7898;48.658;9.068;2023-06-19T01:08:53;20.00;99.90
15596;DHT22;7898;48.658;9.068;2023-06-19T01:11:26;20.00;99.90
15596;DHT22;7898;48.658;9.068;2023-06-19T01:13:56;20.10;99.90
15596;DHT22;7898;48.658;9.068;2023-06-19T01:16:25;20.20;99.90
15596;DHT22;7898;48.658;9.068;2023-06-19T01:18:53;20.40;99.90
15596;DHT22;7898;48.658;9.068;2023-06-19T01:21:20;20.60;99.90
15596;DHT22;7898;48.658;9.068;2023-06-19T01:23:48;20.70;99.90
15596;DHT22;7898;48.658;9.068;2023-06-19T01:26:16;20.80;99.90
15596;DHT22;7898;48.658;9.068;2023-06-19T01:28:44;20.90;99.90
15596;DHT22;7898;48.658;9.068;2023-06-19T01:31:15;21.00;99.90
15596;DHT22;7898;48.658;9.068;2023-06-19T01:33:42;21.00;99.90
15596;DHT22;7898;48.658;9.068;2023-06-19T01:36:11;21.10;99.90
15596;DHT22;7898;48.658;9.068;2023-06-19T01:38:38;21.10;99.90
15596;DHT22;7898;48.658;9.068;2023-06-19T01:41:08;21.10;99.90
15596;DHT22;7898;48.658;9.068;2023-06-19T01:43:37;21.10;99.90
15596;DHT22;7898;48.658;9.068;2023-06-19T01:46:05;21.20;99.90
15596;DHT22;7898;48.658;9.068;2023-06-19T01:48:32;21.20;99.90
15596;DHT22;7898;48.658;9.068;2023-06-19T01:51:01;21.20;99.90
15596;DHT22;7898;48.658;9.068;2023-06-19T01:53:30;21.20;99.90
15596;DHT22;7898;48.658;9.068;2023-06-19T01:55:57;21.10;99.90
15596;DHT22;7898;48.658;9.068;2023-06-19T01:58:25;21.10;99.90
15596;DHT22;7898;48.658;9.068;2023-06-19T02:00:52;21.10;99.90
15596;DHT22;7898;48.658;9.068;2023-06-19T02:03:19;21.10;99.90
15596;DHT22;7898;48.658;9.068;2023-06-19T02:05:46;21.00;99.90
15596;DHT22;7898;48.658;9.068;2023-06-19T02:08:13;21.00;99.90
15596;DHT22;7898;48.658;9.068;2023-06-19T02:10:40;21.00;99.90
15596;DHT22;7898;48.658;9.068;2023-06-19T02:13:07;21.00;99.90
15596;DHT22;7898;48.658;9.068;2023-06-19T02:15:35;20.90;99.90
15596;DHT22;7898;48.658;9.068;2023-06-19T02:18:04;20.90;99.90
15596;DHT22;7898;48.658;9.068;2023-06-19T02:20:31;20.90;99.90
15596;DHT22;7898;48.658;9.068;2023-06-19T02:22:58;20.80;99.90
15596;DHT22;7898;48.658;9.068;2023-06-19T02:25:25;20.90;99.90
15596;DHT22;7898;48.658;9.068;2023-06-19T02:27:51;20.90;99.90
15596;DHT22;7898;48.658;9.068;2023-06-19T02:30:18;20.90;99.90
15596;DHT22;7898;48.658;9.068;2023-06-19T02:32:46;20.80;99.90
15596;DHT22;7898;48.658;9.068;2023-06-19T02:35:14;20.70;99.90
15596;DHT22;7898;48.658;9.068;2023-06-19T02:37:41;20.70;99.90
15596;DHT22;7898;48.658;9.068;2023-06-19T02:40:08;20.60;99.90
15596;DHT22;7898;48.658;9.068;2023-06-19T02:42:36;20.60;99.90
15596;DHT22;7898;48.658;9.068;2023-06-19T02:45:03;20.60;99.90
15596;DHT22;7898;48.658;9.068;2023-06-19T02:47:30;20.60;99.90
15596;DHT22;7898;48.658;9.068;2023-06-19T02:50:00;20.50;99.90
15596;DHT22;7898;48.658;9.068;2023-06-19T02:52:27;20.50;99.90
15596;DHT22;7898;48.658;9.068;2023-06-19T02:54:54;20.50;99.90
15596;DHT22;7898;48.658;9.068;2023-06-19T02:57:21;20.50;99.90
15596;DHT22;7898;48.658;9.068;2023-06-19T02:59:48;20.40;99.90
15596;DHT22;7898;48.658;9.068;2023-06-19T03:02:15;20.40;99.90
15596;DHT22;7898;48.658;9.068;2023-06-19T03:04:42;20.40;99.90
15596;DHT22;7898;48.658;9.068;2023-06-19T03:07:11;20.40;99.90
15596;DHT22;7898;48.658;9.068;2023-06-19T03:09:39;20.40;99.90
15596;DHT22;7898;48.658;9.068;2023-06-19T03:12:06;20.40;99.90
15596;DHT22;7898;48.658;9.068;2023-06-19T03:14:33;20.40;99.90
15596;DHT22;7898;48.658;9.068;2023-06-19T03:17:00;20.40;99.90
15596;DHT22;7898;48.658;9.068;2023-06-19T03:19:27;20.30;99.90
15596;DHT22;7898;48.658;9.068;2023-06-19T03:21:54;20.30;99.90
15596;DHT22;7898;48.658;9.068;2023-06-19T03:24:22;20.30;99.90
15596;DHT22;7898;48.658;9.068;2023-06-19T03:26:49;20.30;99.90
15596;DHT22;7898;48.658;9.068;2023-06-19T03:29:16;20.30;99.90
15596;DHT22;7898;48.658;9.068;2023-06-19T03:31:43;20.30;99.90
15596;DHT22;7898;48.658;9.068;2023-06-19T03:34:10;20.20;99.90
15596;DHT22;7898;48.658;9.068;2023-06-19T03:36:36;20.20;99.90
15596;DHT22;7898;48.658;9.068;2023-06-19T03:39:04;20.20;99.90
15596;DHT22;7898;48.658;9.068;2023-06-19T03:41:32;20.20;99.90
15596;DHT22;7898;48.658;9.068;2023-06-19T03:43:59;20.20;99.90
15596;DHT22;7898;48.658;9.068;2023-06-19T03:46:26;20.20;99.90
15596;DHT22;7898;48.658;9.068;2023-06-19T03:48:53;20.10;99.90
15596;DHT22;7898;48.658;9.068;2023-06-19T03:51:20;20.10;99.90
15596;DHT22;7898;48.658;9.068;2023-06-19T03:53:47;20.10;99.90
15596;DHT22;7898;48.658;9.068;2023-06-19T03:56:15;20.10;99.90
15596;DHT22;7898;48.658;9.068;2023-06-19T03:58:43;20.10;99.90
15596;DHT22;7898;48.658;9.068;2023-06-19T04:01:10;20.10;99.90
15596;DHT22;7898;48.658;9.068;2023-06-19T04:03:37;20.10;99.90
15596;DHT22;7898;48.658;9.068;2023-06-19T04:06:03;20.00;99.90
15596;DHT22;7898;48.658;9.068;2023-06-19T04:08:30;20.10;99.90
15596;DHT22;7898;48.658;9.068;2023-06-19T04:10:57;20.00;99.90
15596;DHT22;7898;48.658;9.068;2023-06-19T04:13:24;20.00;99.90
15596;DHT22;7898;48.658;9.068;2023-06-19T04:15:52;20.00;99.90
15596;DHT22;7898;48.658;9.068;2023-06-19T04:18:19;20.00;99.90
15596;DHT22;7898;48.658;9.068;2023-06-19T04:20:46;20.00;99.90
15596;DHT22;7898;48.658;9.068;2023-06-19T04:23:13;19.90;99.90
15596;DHT22;7898;48.658;9.068;2023-06-19T04:25:40;19.90;99.90
15596;DHT22;7898;48.658;9.068;2023-06-19T04:28:07;19.90;99.90
15596;DHT22;7898;48.658;9.068;2023-06-19T04:30:34;19.80;99.90
15596;DHT22;7898;48.658;9.068;2023-06-19T04:33:02;19.80;99.90
15596;DHT22;7898;48.658;9.068;2023-06-19T04:35:30;19.80;99.90
15596;DHT22;7898;48.658;9.068;2023-06-19T04:37:56;19.80;99.90
15596;DHT22;7898;48.658;9.068;2023-06-19T04:40:26;19.80;99.90
15596;DHT22;7898;48.658;9.068;2023-06-19T04:42:53;19.70;99.90
15596;DHT22;7898;48.658;9.068;2023-06-19T04:45:20;19.70;99.90
15596;DHT22;7898;48.658;9.068;2023-06-19T04:47:47;19.70;99.90
15596;DHT22;7898;48.658;9.068;2023-06-19T04:50:15;19.60;99.90
15596;DHT22;7898;48.658;9.068;2023-06-19T04:52:42;19.60;99.90
15596;DHT22;7898;48.658;9.068;2023-06-19T04:55:09;19.60;99.90
15596;DHT22;7898;48.658;9.068;2023-06-19T04:57:36;19.60;99.90
15596;DHT22;7898;48.658;9.068;2023-06-19T05:00:04;19.60;99.90
15596;DHT22;7898;48.658;9.068;2023-06-19T05:02:32;19.60;99.90
15596;DHT22;7898;48.658;9.068;2023-06-19T05:04:59;19.60;99.90
15596;DHT22;7898;48.658;9.068;2023-06-19T05:07:30;19.60;99.90
15596;DHT22;7898;48.658;9.068;2023-06-19T05:09:57;19.60;99.90
15596;DHT22;7898;48.658;9.068;2023-06-19T05:12:24;19.60;99.90
15596;DHT22;7898;48.658;9.068;2023-06-19T05:14:51;19.60;99.90
15596;DHT22;7898;48.658;9.068;2023-06-19T05:17:18;19.70;99.90
15596;DHT22;7898;48.658;9.068;2023-06-19T05:19:45;19.70;99.90
15596;DHT22;7898;48.658;9.068;2023-06-19T05:22:11;19.80;99.90
15596;DHT22;7898;48.658;9.068;2023-06-19T05:24:40;19.90;99.90
15596;DHT22;7898;48.658;9.068;2023-06-19T05:27:07;20.10;99.90
15596;DHT22;7898;48.658;9.068;2023-06-19T05:29:34;20.10;99.90
15596;DHT22;7898;48.658;9.068;2023-06-19T05:32:01;20.20;99.90
15596;DHT22;7898;48.658;9.068;2023-06-19T05:34:28;20.20;99.90
15596;DHT22;7898;48.658;9.068;2023-06-19T05:36:55;20.30;99.90
15596;DHT22;7898;48.658;9.068;2023-06-19T05:39:22;20.30;99.90
15596;DHT22;7898;48.658;9.068;2023-06-19T05:41:50;20.40;99.90
15596;DHT22;7898;48.658;9.068;2023-06-19T05:44:17;20.50;99.90
15596;DHT22;7898;48.658;9.068;2023-06-19T05:46:44;20.60;99.90
15596;DHT22;7898;48.658;9.068;2023-06-19T05:49:11;20.70;99.90
15596;DHT22;7898;48.658;9.068;2023-06-19T05:51:38;20.70;99.90
15596;DHT22;7898;48.658;9.068;2023-06-19T05:54:05;20.70;99.90
15596;DHT22;7898;48.658;9.068;2023-06-19T05:56:32;20.70;99.90
15596;DHT22;7898;48.658;9.068;2023-06-19T05:59:01;20.70;99.90
15596;DHT22;7898;48.658;9.068;2023-06-19T06:01:28;20.70;99.90
15596;DHT22;7898;48.658;9.068;2023-06-19T06:03:55;20.80;99.90
15596;DHT22;7898;48.658;9.068;2023-06-19T06:06:23;20.90;99.90
15596;DHT22;7898;48.658;9.068;2023-06-19T06:08:51;20.90;99.90
15596;DHT22;7898;48.658;9.068;2023-06-19T06:11:18;20.90;99.90
15596;DHT22;7898;48.658;9.068;2023-06-19T06:13:45;21.00;99.90
15596;DHT22;7898;48.658;9.068;2023-06-19T06:16:19;21.00;99.90
15596;DHT22;7898;48.658;9.068;2023-06-19T06:18:45;21.10;99.90
15596;DHT22;7898;48.658;9.068;2023-06-19T06:21:12;21.10;99.90
15596;DHT22;7898;48.658;9.068;2023-06-19T06:23:40;21.30;99.90
15596;DHT22;7898;48.658;9.068;2023-06-19T06:26:10;21.40;99.90
15596;DHT22;7898;48.658;9.068;2023-06-19T06:28:37;21.50;99.90
15596;DHT22;7898;48.658;9.068;2023-06-19T06:31:04;21.60;99.90
15596;DHT22;7898;48.658;9.068;2023-06-19T06:33:33;21.80;99.90
15596;DHT22;7898;48.658;9.068;2023-06-19T06:35:59;21.90;99.90
15596;DHT22;7898;48.658;9.068;2023-06-19T06:38:26;21.80;99.90
15596;DHT22;7898;48.658;9.068;2023-06-19T06:40:53;21.90;99.90
15596;DHT22;7898;48.658;9.068;2023-06-19T06:43:20;21.90;99.90
15596;DHT22;7898;48.658;9.068;2023-06-19T06:45:47;21.90;99.90
15596;DHT22;7898;48.658;9.068;2023-06-19T06:48:14;22.00;99.90
15596;DHT22;7898;48.658;9.068;2023-06-19T06:50:42;22.10;99.90
15596;DHT22;7898;48.658;9.068;2023-06-19T06:53:10;22.20;99.90
15596;DHT22;7898;48.658;9.068;2023-06-19T06:55:36;22.40;99.90
15596;DHT22;7898;48.658;9.068;2023-06-19T06:58:03;22.50;99.90
15596;DHT22;7898;48.658;9.068;2023-06-19T07:00:30;22.60;99.90
15596;DHT22;7898;48.658;9.068;2023-06-19T07:02:57;22.70;99.90
15596;DHT22;7898;48.658;9.068;2023-06-19T07:05:24;22.80;99.90
15596;DHT22;7898;48.658;9.068;2023-06-19T07:07:52;22.90;99.90
15596;DHT22;7898;48.658;9.068;2023-06-19T07:10:19;23.00;99.90
15596;DHT22;7898;48.658;9.068;2023-06-19T07:12:47;23.10;99.90
15596;DHT22;7898;48.658;9.068;2023-06-19T07:15:14;23.10;99.90
15596;DHT22;7898;48.658;9.068;2023-06-19T07:17:41;23.20;99.90
15596;DHT22;7898;48.658;9.068;2023-06-19T07:20:09;23.50;99.90
15596;DHT22;7898;48.658;9.068;2023-06-19T07:22:36;23.80;99.90
15596;DHT22;7898;48.658;9.068;2023-06-19T07:25:10;24.40;99.90
15596;DHT22;7898;48.658;9.068;2023-06-19T07:27:37;25.00;99.90
15596;DHT22;7898;48.658;9.068;2023-06-19T07:30:05;25.30;99.90
15596;DHT22;7898;48.658;9.068;2023-06-19T07:32:32;25.30;99.90
15596;DHT22;7898;48.658;9.068;2023-06-19T07:34:59;25.40;99.90
15596;DHT22;7898;48.658;9.068;2023-06-19T07:37:26;25.60;99.90
15596;DHT22;7898;48.658;9.068;2023-06-19T07:39:53;25.80;99.90
15596;DHT22;7898;48.658;9.068;2023-06-19T07:42:22;25.80;99.90
15596;DHT22;7898;48.658;9.068;2023-06-19T07:44:49;25.60;99.90
15596;DHT22;7898;48.658;9.068;2023-06-19T07:47:17;25.20;99.90
15596;DHT22;7898;48.658;9.068;2023-06-19T07:49:46;24.80;99.90
15596;DHT22;7898;48.658;9.068;2023-06-19T07:52:13;24.40;99.90
15596;DHT22;7898;48.658;9.068;2023-06-19T07:54:51;24.20;99.90
15596;DHT22;7898;48.658;9.068;2023-06-19T07:57:19;24.00;99.90
15596;DHT22;7898;48.658;9.068;2023-06-19T07:59:47;23.90;99.90
15596;DHT22;7898;48.658;9.068;2023-06-19T08:02:14;23.90;99.90
15596;DHT22;7898;48.658;9.068;2023-06-19T08:04:41;23.90;99.90
15596;DHT22;7898;48.658;9.068;2023-06-19T08:07:08;23.90;99.90
15596;DHT22;7898;48.658;9.068;2023-06-19T08:09:35;24.00;99.90
15596;DHT22;7898;48.658;9.068;2023-06-19T08:12:03;24.00;99.90
15596;DHT22;7898;48.658;9.068;2023-06-19T08:14:30;24.10;99.90
15596;DHT22;7898;48.658;9.068;2023-06-19T08:16:58;24.20;99.90
15596;DHT22;7898;48.658;9.068;2023-06-19T08:19:25;24.30;99.90
15596;DHT22;7898;48.658;9.068;2023-06-19T08:21:52;24.40;99.90
15596;DHT22;7898;48.658;9.068;2023-06-19T08:24:18;24.30;99.90
15596;DHT22;7898;48.658;9.068;2023-06-19T08:26:45;24.40;99.90
15596;DHT22;7898;48.658;9.068;2023-06-19T08:29:16;24.60;99.90
15596;DHT22;7898;48.658;9.068;2023-06-19T08:31:43;24.90;99.90
15596;DHT22;7898;48.658;9.068;2023-06-19T08:34:11;25.30;99.90
15596;DHT22;7898;48.658;9.068;2023-06-19T08:36:38;25.60;99.90
15596;DHT22;7898;48.658;9.068;2023-06-19T08:39:05;26.00;99.90
15596;DHT22;7898;48.658;9.068;2023-06-19T08:41:34;26.40;99.90
15596;DHT22;7898;48.658;9.068;2023-06-19T08:44:01;26.80;99.90
15596;DHT22;7898;48.658;9.068;2023-06-19T08:46:28;27.00;99.90
15596;DHT22;7898;48.658;9.068;2023-06-19T08:48:56;27.10;99.90
15596;DHT22;7898;48.658;9.068;2023-06-19T08:51:24;27.40;99.90
15596;DHT22;7898;48.658;9.068;2023-06-19T08:53:56;27.70;99.90
15596;DHT22;7898;48.658;9.068;2023-06-19T08:56:23;27.60;99.90
15596;DHT22;7898;48.658;9.068;2023-06-19T08:58:50;27.40;99.90
15596;DHT22;7898;48.658;9.068;2023-06-19T09:01:18;27.10;99.90
15596;DHT22;7898;48.658;9.068;2023-06-19T09:03:45;26.80;99.90
15596;DHT22;7898;48.658;9.068;2023-06-19T09:06:17;26.60;99.90
15596;DHT22;7898;48.658;9.068;2023-06-19T09:08:46;26.60;99.90
15596;DHT22;7898;48.658;9.068;2023-06-19T09:11:23;26.60;99.90
15596;DHT22;7898;48.658;9.068;2023-06-19T09:13:56;26.50;99.90
15596;DHT22;7898;48.658;9.068;2023-06-19T09:16:24;26.40;99.90
15596;DHT22;7898;48.658;9.068;2023-06-19T09:19:02;26.20;99.90
15596;DHT22;7898;48.658;9.068;2023-06-19T09:21:29;25.90;99.90
15596;DHT22;7898;48.658;9.068;2023-06-19T09:24:04;25.80;99.90
15596;DHT22;7898;48.658;9.068;2023-06-19T09:26:31;25.60;99.90
15596;DHT22;7898;48.658;9.068;2023-06-19T09:28:58;25.60;99.90
15596;DHT22;7898;48.658;9.068;2023-06-19T09:31:32;25.60;99.90
15596;DHT22;7898;48.658;9.068;2023-06-19T09:33:59;25.60;99.90
15596;DHT22;7898;48.658;9.068;2023-06-19T09:36:26;25.70;99.90
15596;DHT22;7898;48.658;9.068;2023-06-19T09:38:54;25.60;99.90
15596;DHT22;7898;48.658;9.068;2023-06-19T09:41:24;26.00;99.90
15596;DHT22;7898;48.658;9.068;2023-06-19T09:43:55;26.30;99.90
15596;DHT22;7898;48.658;9.068;2023-06-19T09:46:26;26.70;99.90
15596;DHT22;7898;48.658;9.068;2023-06-19T09:49:00;26.80;99.90
15596;DHT22;7898;48.658;9.068;2023-06-19T09:51:30;27.10;99.90
15596;DHT22;7898;48.658;9.068;2023-06-19T09:53:58;27.50;99.90
15596;DHT22;7898;48.658;9.068;2023-06-19T09:56:29;27.40;99.90
15596;DHT22;7898;48.658;9.068;2023-06-19T09:58:57;27.20;99.90
15596;DHT22;7898;48.658;9.068;2023-06-19T10:01:27;27.10;99.90
15596;DHT22;7898;48.658;9.068;2023-06-19T10:04:04;27.20;99.90
15596;DHT22;7898;48.658;9.068;2023-06-19T10:06:31;27.30;99.90
15596;DHT22;7898;48.658;9.068;2023-06-19T10:09:06;27.50;99.90
15596;DHT22;7898;48.658;9.068;2023-06-19T10:11:51;27.60;99.90
15596;DHT22;7898;48.658;9.068;2023-06-19T10:14:18;27.70;99.90
15596;DHT22;7898;48.658;9.068;2023-06-19T10:16:45;27.70;99.90
15596;DHT22;7898;48.658;9.068;2023-06-19T10:19:14;27.70;99.90
15596;DHT22;7898;48.658;9.068;2023-06-19T10:21:46;27.70;99.90
15596;DHT22;7898;48.658;9.068;2023-06-19T10:24:17;27.70;99.90
15596;DHT22;7898;48.658;9.068;2023-06-19T10:26:58;27.80;99.90
15596;DHT22;7898;48.658;9.068;2023-06-19T10:29:26;27.90;99.90
15596;DHT22;7898;48.658;9.068;2023-06-19T10:31:53;28.00;99.90
15596;DHT22;7898;48.658;9.068;2023-06-19T10:34:22;28.20;99.90
15596;DHT22;7898;48.658;9.068;2023-06-19T10:36:59;28.30;99.90
15596;DHT22;7898;48.658;9.068;2023-06-19T10:39:26;28.50;99.90
15596;DHT22;7898;48.658;9.068;2023-06-19T10:41:53;28.80;99.90
15596;DHT22;7898;48.658;9.068;2023-06-19T10:44:23;29.00;99.90
15596;DHT22;7898;48.658;9.068;2023-06-19T10:46:52;29.10;99.90
15596;DHT22;7898;48.658;9.068;2023-06-19T10:49:21;29.10;99.90
15596;DHT22;7898;48.658;9.068;2023-06-19T10:51:48;29.20;99.90
15596;DHT22;7898;48.658;9.068;2023-06-19T10:54:15;29.40;99.90
15596;DHT22;7898;48.658;9.068;2023-06-19T10:56:42;29.40;99.90
15596;DHT22;7898;48.658;9.068;2023-06-19T10:59:10;29.40;99.90
15596;DHT22;7898;48.658;9.068;2023-06-19T11:01:42;29.50;99.90
15596;DHT22;7898;48.658;9.068;2023-06-19T11:04:10;29.40;99.90
15596;DHT22;7898;48.658;9.068;2023-06-19T11:06:37;29.30;99.90
15596;DHT22;7898;48.658;9.068;2023-06-19T11:09:06;29.20;99.90
15596;DHT22;7898;48.658;9.068;2023-06-19T11:11:38;29.20;99.90
15596;DHT22;7898;48.658;9.068;2023-06-19T11:14:05;29.00;99.90
15596;DHT22;7898;48.658;9.068;2023-06-19T11:16:33;28.80;99.90
15596;DHT22;7898;48.658;9.068;2023-06-19T11:19:01;28.80;99.90
15596;DHT22;7898;48.658;9.068;2023-06-19T11:21:31;28.70;99.90
15596;DHT22;7898;48.658;9.068;2023-06-19T11:24:00;28.70;99.90
15596;DHT22;7898;48.658;9.068;2023-06-19T11:26:27;28.90;99.90
15596;DHT22;7898;48.658;9.068;2023-06-19T11:28:54;29.10;99.90
15596;DHT22;7898;48.658;9.068;2023-06-19T11:31:25;29.30;99.90
15596;DHT22;7898;48.658;9.068;2023-06-19T11:34:00;29.40;99.90
15596;DHT22;7898;48.658;9.068;2023-06-19T11:36:28;29.20;99.90
15596;DHT22;7898;48.658;9.068;2023-06-19T11:38:55;29.10;99.90
15596;DHT22;7898;48.658;9.068;2023-06-19T11:41:25;28.90;99.90
15596;DHT22;7898;48.658;9.068;2023-06-19T11:43:58;28.70;99.90
15596;DHT22;7898;48.658;9.068;2023-06-19T11:46:29;28.50;99.90
15596;DHT22;7898;48.658;9.068;2023-06-19T11:49:07;28.40;99.90
15596;DHT22;7898;48.658;9.068;2023-06-19T11:51:35;28.20;99.90
15596;DHT22;7898;48.658;9.068;2023-06-19T11:54:03;28.10;99.90
15596;DHT22;7898;48.658;9.068;2023-06-19T11:56:30;28.10;99.90
15596;DHT22;7898;48.658;9.068;2023-06-19T11:58:57;28.30;99.90
15596;DHT22;7898;48.658;9.068;2023-06-19T12:01:24;28.30;99.90
15596;DHT22;7898;48.658;9.068;2023-06-19T12:03:51;28.40;99.90
15596;DHT22;7898;48.658;9.068;2023-06-19T12:06:20;28.50;99.90
15596;DHT22;7898;48.658;9.068;2023-06-19T12:08:47;28.70;99.90
15596;DHT22;7898;48.658;9.068;2023-06-19T12:11:14;28.70;99.90
15596;DHT22;7898;48.658;9.068;2023-06-19T12:13:41;28.70;99.90
15596;DHT22;7898;48.658;9.068;2023-06-19T12:16:08;28.70;99.90
15596;DHT22;7898;48.658;9.068;2023-06-19T12:18:36;28.70;99.90
15596;DHT22;7898;48.658;9.068;2023-06-19T12:21:03;28.90;99.90
15596;DHT22;7898;48.658;9.068;2023-06-19T12:23:31;28.90;99.90
15596;DHT22;7898;48.658;9.068;2023-06-19T12:25:58;29.10;99.90
15596;DHT22;7898;48.658;9.068;2023-06-19T12:28:25;29.20;99.90
15596;DHT22;7898;48.658;9.068;2023-06-19T12:30:53;29.20;99.90
15596;DHT22;7898;48.658;9.068;2023-06-19T12:33:21;29.30;99.90
15596;DHT22;7898;48.658;9.068;2023-06-19T12:35:48;29.50;99.90
15596;DHT22;7898;48.658;9.068;2023-06-19T12:38:15;29.70;99.90
15596;DHT22;7898;48.658;9.068;2023-06-19T12:40:44;29.90;99.90
15596;DHT22;7898;48.658;9.068;2023-06-19T12:43:11;30.20;99.90
15596;DHT22;7898;48.658;9.068;2023-06-19T12:45:38;30.40;99.90
15596;DHT22;7898;48.658;9.068;2023-06-19T12:48:07;30.60;99.90
15596;DHT22;7898;48.658;9.068;2023-06-19T12:50:34;30.60;99.90
15596;DHT22;7898;48.658;9.068;2023-06-19T12:53:00;30.60;99.90
15596;DHT22;7898;48.658;9.068;2023-06-19T12:55:28;30.70;99.90
15596;DHT22;7898;48.658;9.068;2023-06-19T12:57:56;30.70;99.90
15596;DHT22;7898;48.658;9.068;2023-06-19T13:00:23;30.70;99.90
15596;DHT22;7898;48.658;9.068;2023-06-19T13:02:50;30.70;99.90
15596;DHT22;7898;48.658;9.068;2023-06-19T13:05:16;30.80;99.90
15596;DHT22;7898;48.658;9.068;2023-06-19T13:07:43;30.90;99.90
15596;DHT22;7898;48.658;9.068;2023-06-19T13:10:10;30.90;99.90
15596;DHT22;7898;48.658;9.068;2023-06-19T13:12:37;30.70;99.90
15596;DHT22;7898;48.658;9.068;2023-06-19T13:15:07;30.30;99.30
15596;DHT22;7898;48.658;9.068;2023-06-19T13:17:34;30.10;99.50
15596;DHT22;7898;48.658;9.068;2023-06-19T13:20:01;29.80;99.90
15596;DHT22;7898;48.658;9.068;2023-06-19T13:22:29;29.70;99.90
15596;DHT22;7898;48.658;9.068;2023-06-19T13:24:56;29.80;99.90
15596;DHT22;7898;48.658;9.068;2023-06-19T13:27:23;30.00;99.90
15596;DHT22;7898;48.658;9.068;2023-06-19T13:29:50;30.20;99.90
15596;DHT22;7898;48.658;9.068;2023-06-19T13:32:19;30.40;99.90
15596;DHT22;7898;48.658;9.068;2023-06-19T13:34:45;30.40;99.90
15596;DHT22;7898;48.658;9.068;2023-06-19T13:37:12;30.50;99.90
15596;DHT22;7898;48.658;9.068;2023-06-19T13:39:39;30.70;99.90
15596;DHT22;7898;48.658;9.068;2023-06-19T13:42:06;30.80;99.80
15596;DHT22;7898;48.658;9.068;2023-06-19T13:44:33;30.80;99.60
15596;DHT22;7898;48.658;9.068;2023-06-19T13:47:00;30.80;99.90
15596;DHT22;7898;48.658;9.068;2023-06-19T13:49:29;30.90;99.40
15596;DHT22;7898;48.658;9.068;2023-06-19T13:51:56;30.80;99.90
15596;DHT22;7898;48.658;9.068;2023-06-19T13:54:23;30.70;99.90
15596;DHT22;7898;48.658;9.068;2023-06-19T13:56:50;30.80;99.90
15596;DHT22;7898;48.658;9.068;2023-06-19T13:59:17;30.50;99.90
15596;DHT22;7898;48.658;9.068;2023-06-19T14:01:45;30.30;99.90
15596;DHT22;7898;48.658;9.068;2023-06-19T14:04:11;30.30;99.90
15596;DHT22;7898;48.658;9.068;2023-06-19T14:06:40;30.50;99.90
15596;DHT22;7898;48.658;9.068;2023-06-19T14:09:08;30.60;99.90
15596;DHT22;7898;48.658;9.068;2023-06-19T14:11:35;30.70;99.90
15596;DHT22;7898;48.658;9.068;2023-06-19T14:14:02;30.80;99.90
15596;DHT22;7898;48.658;9.068;2023-06-19T14:16:29;31.00;99.40
15596;DHT22;7898;48.658;9.068;2023-06-19T14:18:56;31.10;99.50
15596;DHT22;7898;48.658;9.068;2023-06-19T14:21:23;31.20;98.70
15596;DHT22;7898;48.658;9.068;2023-06-19T14:23:51;31.20;98.90
15596;DHT22;7898;48.658;9.068;2023-06-19T14:26:18;31.20;98.60
15596;DHT22;7898;48.658;9.068;2023-06-19T14:28:45;31.10;97.90
15596;DHT22;7898;48.658;9.068;2023-06-19T14:31:11;30.70;98.80
15596;DHT22;7898;48.658;9.068;2023-06-19T14:33:38;30.20;98.30
15596;DHT22;7898;48.658;9.068;2023-06-19T14:36:05;30.00;98.90
15596;DHT22;7898;48.658;9.068;2023-06-19T14:38:32;29.90;99.70
15596;DHT22;7898;48.658;9.068;2023-06-19T14:41:01;29.80;99.30
15596;DHT22;7898;48.658;9.068;2023-06-19T14:43:28;29.80;98.60
15596;DHT22;7898;48.658;9.068;2023-06-19T14:45:56;29.80;99.30
15596;DHT22;7898;48.658;9.068;2023-06-19T14:48:22;29.70;98.70
15596;DHT22;7898;48.658;9.068;2023-06-19T14:50:49;29.80;99.50
15596;DHT22;7898;48.658;9.068;2023-06-19T14:53:16;29.90;98.90
15596;DHT22;7898;48.658;9.068;2023-06-19T14:55:43;30.00;98.80
15596;DHT22;7898;48.658;9.068;2023-06-19T14:58:13;30.30;98.90
15596;DHT22;7898;48.658;9.068;2023-06-19T15:00:40;30.80;98.80
15596;DHT22;7898;48.658;9.068;2023-06-19T15:03:07;31.40;98.30
15596;DHT22;7898;48.658;9.068;2023-06-19T15:05:34;31.80;97.80
15596;DHT22;7898;48.658;9.068;2023-06-19T15:08:01;32.20;97.00
15596;DHT22;7898;48.658;9.068;2023-06-19T15:10:29;32.00;96.30
15596;DHT22;7898;48.658;9.068;2023-06-19T15:12:56;32.10;96.60
15596;DHT22;7898;48.658;9.068;2023-06-19T15:15:24;32.00;96.20
15596;DHT22;7898;48.658;9.068;2023-06-19T15:17:51;31.90;96.60
15596;DHT22;7898;48.658;9.068;2023-06-19T15:20:18;31.50;97.20
15596;DHT22;7898;48.658;9.068;2023-06-19T15:22:46;31.30;96.60
15596;DHT22;7898;48.658;9.068;2023-06-19T15:25:13;30.80;97.10
15596;DHT22;7898;48.658;9.068;2023-06-19T15:27:40;30.70;98.30
15596;DHT22;7898;48.658;9.068;2023-06-19T15:30:08;30.80;96.80
15596;DHT22;7898;48.658;9.068;2023-06-19T15:32:36;30.60;96.70
15596;DHT22;7898;48.658;9.068;2023-06-19T15:35:04;30.50;96.80
15596;DHT22;7898;48.658;9.068;2023-06-19T15:37:31;30.50;96.80
15596;DHT22;7898;48.658;9.068;2023-06-19T15:39:58;30.60;97.60
15596;DHT22;7898;48.658;9.068;2023-06-19T15:42:26;30.60;97.50
15596;DHT22;7898;48.658;9.068;2023-06-19T15:44:53;30.60;97.50
15596;DHT22;7898;48.658;9.068;2023-06-19T15:47:20;30.50;97.20
15596;DHT22;7898;48.658;9.068;2023-06-19T15:49:48;30.70;97.70